Time,TemperatureF,DewpointF,PressureIn,WindDirection,WindDirectionDegrees,WindSpeedMPH,WindSpeedGustMPH,Humidity,HourlyPrecipIn,Conditions,Clouds,dailyrainin,SoftwareType,DateUTC
2013-03-11 00:00:00,53.7,37.0,29.94,NNE,28,0.0,1.0,53,0.00,,,0.00,Wunderground v.1.13,2013-03-11 04:00:00,
2013-03-11 00:10:00,55.5,36.6,29.94,SE,126,0.0,1.0,49,0.00,,,0.00,Wunderground v.1.13,2013-03-11 04:10:00,
2013-03-11 00:20:00,56.8,36.2,29.94,SE,126,0.0,1.0,46,0.00,,,0.00,Wunderground v.1.13,2013-03-11 04:20:00,
2013-03-11 00:30:00,58.3,35.9,29.94,NE,54,0.0,1.0,43,0.00,,,0.00,Wunderground v.1.13,2013-03-11 04:30:00,
2013-03-11 00:40:00,59.1,36.0,29.92,SE,132,0.0,1.0,42,0.00,,,0.00,Wunderground v.1.13,2013-03-11 04:40:00,
2013-03-11 00:50:00,59.2,36.1,29.92,ENE,58,0.0,1.0,42,0.00,,,0.00,Wunderground v.1.13,2013-03-11 04:50:00,
2013-03-11 01:00:00,59.5,36.4,29.91,ENE,59,0.0,1.0,42,0.00,,,0.00,Wunderground v.1.13,2013-03-11 05:00:00,
2013-03-11 01:10:00,59.8,36.6,29.91,East,84,0.0,1.0,42,0.00,,,0.00,Wunderground v.1.13,2013-03-11 05:10:00,
2013-03-11 01:20:00,59.4,37.5,29.91,NW,315,0.0,1.0,44,0.00,,,0.00,Wunderground v.1.13,2013-03-11 05:20:00,
2013-03-11 01:30:00,59.2,37.3,29.91,SE,132,0.0,1.0,44,0.00,,,0.00,Wunderground v.1.13,2013-03-11 05:30:00,
2013-03-11 01:40:00,58.3,38.7,29.90,SE,132,0.0,1.0,48,0.00,,,0.00,Wunderground v.1.13,2013-03-11 05:40:00,
2013-03-11 01:50:00,56.9,38.9,29.90,SE,133,0.0,2.0,51,0.00,,,0.00,Wunderground v.1.13,2013-03-11 05:50:00,
2013-03-11 02:00:00,55.9,39.0,29.90,East,88,0.0,1.0,53,0.00,,,0.00,Wunderground v.1.13,2013-03-11 06:00:00,
2013-03-11 02:10:00,54.9,39.0,29.90,East,88,0.0,1.0,55,0.00,,,0.00,Wunderground v.1.13,2013-03-11 06:10:00,
2013-03-11 02:20:00,54.1,38.3,29.90,East,88,0.0,1.0,55,0.00,,,0.00,Wunderground v.1.13,2013-03-11 06:20:00,
2013-03-11 02:30:00,54.1,38.3,29.90,East,88,0.0,1.0,55,0.00,,,0.00,Wunderground v.1.13,2013-03-11 06:30:00,
2013-03-11 02:40:00,54.3,38.5,29.89,East,88,0.0,1.0,55,0.00,,,0.00,Wunderground v.1.13,2013-03-11 06:40:00,
2013-03-11 02:50:00,53.8,40.7,29.89,East,88,0.0,1.0,61,0.00,,,0.00,Wunderground v.1.13,2013-03-11 06:50:00,
2013-03-11 03:00:00,52.8,39.3,29.89,East,88,0.0,1.0,60,0.00,,,0.00,Wunderground v.1.13,2013-03-11 07:00:00,
2013-03-11 03:10:00,54.0,38.2,29.88,SE,138,0.0,1.0,55,0.00,,,0.00,Wunderground v.1.13,2013-03-11 07:10:00,
2013-03-11 03:20:00,55.9,40.0,29.88,ENE,77,0.0,1.0,55,0.00,,,0.00,Wunderground v.1.13,2013-03-11 07:20:00,
2013-03-11 03:30:00,55.5,41.0,29.86,ENE,77,0.0,1.0,58,0.00,,,0.00,Wunderground v.1.13,2013-03-11 07:30:00,
2013-03-11 03:40:00,54.4,39.9,29.88,ENE,77,0.0,1.0,58,0.00,,,0.00,Wunderground v.1.13,2013-03-11 07:40:00,
2013-03-11 03:50:00,54.1,40.5,29.88,WSW,240,0.0,1.0,60,0.00,,,0.00,Wunderground v.1.13,2013-03-11 07:50:00,
2013-03-11 04:00:00,53.2,39.7,29.87,WSW,242,0.0,1.0,60,0.00,,,0.00,Wunderground v.1.13,2013-03-11 08:00:00,
2013-03-11 04:10:00,53.2,40.5,29.86,WSW,242,0.0,1.0,62,0.00,,,0.00,Wunderground v.1.13,2013-03-11 08:10:00,
2013-03-11 04:20:00,53.2,39.7,29.86,WSW,242,0.0,1.0,60,0.00,,,0.00,Wunderground v.1.13,2013-03-11 08:20:00,
2013-03-11 04:30:00,52.8,40.5,29.85,WSW,242,0.0,1.0,63,0.00,,,0.00,Wunderground v.1.13,2013-03-11 08:30:00,
2013-03-11 04:40:00,52.2,40.0,29.85,WSW,242,0.0,1.0,63,0.00,,,0.00,Wunderground v.1.13,2013-03-11 08:40:00,
2013-03-11 04:50:00,51.6,40.2,29.85,WSW,242,0.0,1.0,65,0.00,,,0.00,Wunderground v.1.13,2013-03-11 08:50:00,
2013-03-11 05:00:00,51.2,41.0,29.84,WSW,242,0.0,1.0,68,0.00,,,0.00,Wunderground v.1.13,2013-03-11 09:00:00,
2013-03-11 05:10:00,50.9,39.9,29.84,WSW,242,0.0,1.0,66,0.00,,,0.00,Wunderground v.1.13,2013-03-11 09:10:00,
2013-03-11 05:20:00,50.6,40.0,29.84,WSW,242,0.0,1.0,67,0.00,,,0.00,Wunderground v.1.13,2013-03-11 09:20:00,
2013-03-11 05:30:00,50.3,40.1,29.85,WSW,242,0.0,1.0,68,0.00,,,0.00,Wunderground v.1.13,2013-03-11 09:30:00,
2013-03-11 05:40:00,50.0,39.1,29.85,WSW,242,0.0,1.0,66,0.00,,,0.00,Wunderground v.1.13,2013-03-11 09:40:00,
2013-03-11 05:50:00,50.1,41.8,29.85,SW,225,0.0,2.0,73,0.00,,,0.00,Wunderground v.1.13,2013-03-11 09:50:00,
2013-03-11 06:00:00,50.6,40.8,29.86,ENE,74,1.0,2.0,69,0.00,,,0.00,Wunderground v.1.13,2013-03-11 10:00:00,
2013-03-11 06:10:00,51.2,40.6,29.85,ENE,60,0.0,1.0,67,0.00,,,0.00,Wunderground v.1.13,2013-03-11 10:10:00,
2013-03-11 06:20:00,51.5,40.9,29.85,ENE,60,0.0,1.0,67,0.00,,,0.00,Wunderground v.1.13,2013-03-11 10:20:00,
2013-03-11 06:30:00,52.4,42.1,29.86,ENE,58,0.0,1.0,68,0.00,,,0.00,Wunderground v.1.13,2013-03-11 10:30:00,
2013-03-11 06:40:00,53.0,42.7,29.88,East,82,0.0,1.0,68,0.00,,,0.00,Wunderground v.1.13,2013-03-11 10:40:00,
2013-03-11 06:50:00,53.2,42.5,29.88,East,82,0.0,1.0,67,0.00,,,0.00,Wunderground v.1.13,2013-03-11 10:50:00,
2013-03-11 07:00:00,53.7,43.0,29.88,East,82,0.0,1.0,67,0.00,,,0.00,Wunderground v.1.13,2013-03-11 11:00:00,
2013-03-11 07:10:00,54.3,43.2,29.88,East,82,0.0,1.0,66,0.00,,,0.00,Wunderground v.1.13,2013-03-11 11:10:00,
2013-03-11 07:20:00,55.8,44.6,29.88,SE,127,0.0,1.0,66,0.00,,,0.00,Wunderground v.1.13,2013-03-11 11:20:00,
2013-03-11 07:30:00,57.1,45.0,29.88,WSW,251,0.0,1.0,64,0.00,,,0.00,Wunderground v.1.13,2013-03-11 11:30:00,
2013-03-11 07:40:00,57.5,45.0,29.87,WSW,251,0.0,1.0,63,0.00,,,0.00,Wunderground v.1.13,2013-03-11 11:40:00,
2013-03-11 07:50:00,56.8,45.2,29.87,NE,47,0.0,3.0,65,0.00,,,0.00,Wunderground v.1.13,2013-03-11 11:50:00,
2013-03-11 08:00:00,55.9,45.1,29.87,NE,51,0.0,1.0,67,0.00,,,0.00,Wunderground v.1.13,2013-03-11 12:00:00,
2013-03-11 08:10:00,56.1,45.3,29.87,NE,51,0.0,1.0,67,0.00,,,0.00,Wunderground v.1.13,2013-03-11 12:10:00,
2013-03-11 08:20:00,56.1,45.3,29.87,NE,51,0.0,1.0,67,0.00,,,0.00,Wunderground v.1.13,2013-03-11 12:20:00,
2013-03-11 08:30:00,56.1,45.7,29.86,NE,51,0.0,1.0,68,0.00,,,0.00,Wunderground v.1.13,2013-03-11 12:30:00,
2013-03-11 08:40:00,56.4,46.0,29.88,East,100,0.0,1.0,68,0.00,,,0.00,Wunderground v.1.13,2013-03-11 12:40:00,
2013-03-11 08:50:00,57.9,46.6,29.88,SE,140,0.0,1.0,66,0.00,,,0.00,Wunderground v.1.13,2013-03-11 12:50:00,
2013-03-11 09:00:00,58.5,46.8,29.86,SE,140,0.0,2.0,65,0.00,,,0.00,Wunderground v.1.13,2013-03-11 13:00:00,
2013-03-11 09:10:00,59.1,47.3,29.84,SE,140,0.0,1.0,65,0.00,,,0.00,Wunderground v.1.13,2013-03-11 13:10:00,
2013-03-11 09:20:00,59.7,47.1,29.84,ESE,121,0.0,1.0,63,0.00,,,0.00,Wunderground v.1.13,2013-03-11 13:20:00,
2013-03-11 09:30:00,60.1,47.0,29.84,SE,131,0.0,1.0,62,0.00,,,0.00,Wunderground v.1.13,2013-03-11 13:30:00,
2013-03-11 09:40:00,60.8,46.8,29.82,ESE,117,1.0,1.0,60,0.00,,,0.00,Wunderground v.1.13,2013-03-11 13:40:00,
2013-03-11 09:50:00,61.2,46.8,29.82,ESE,119,1.0,1.0,59,0.00,,,0.00,Wunderground v.1.13,2013-03-11 13:50:00,
2013-03-11 10:00:00,61.9,46.5,29.81,SE,131,1.0,3.0,57,0.00,,,0.00,Wunderground v.1.13,2013-03-11 14:00:00,
2013-03-11 10:10:00,63.1,46.2,29.81,SE,141,2.0,2.0,54,0.00,,,0.00,Wunderground v.1.13,2013-03-11 14:10:00,
2013-03-11 10:20:00,63.6,46.6,29.81,SSE,155,1.0,2.0,54,0.00,,,0.00,Wunderground v.1.13,2013-03-11 14:20:00,
2013-03-11 10:30:00,63.9,46.4,29.81,SE,138,1.0,2.0,53,0.00,,,0.00,Wunderground v.1.13,2013-03-11 14:30:00,
2013-03-11 10:40:00,63.9,46.9,29.80,SSE,151,1.0,1.0,54,0.00,,,0.00,Wunderground v.1.13,2013-03-11 14:40:00,
2013-03-11 10:50:00,63.9,46.4,29.80,SSE,154,1.0,1.0,53,0.00,,,0.00,Wunderground v.1.13,2013-03-11 14:50:00,
2013-03-11 11:00:00,64.2,46.2,29.80,SE,143,1.0,1.0,52,0.00,,,0.00,Wunderground v.1.13,2013-03-11 15:00:00,
2013-03-11 11:10:00,64.2,46.2,29.79,SE,144,0.0,1.0,52,0.00,,,0.00,Wunderground v.1.13,2013-03-11 15:10:00,
2013-03-11 11:20:00,64.4,45.9,29.79,SE,144,0.0,1.0,51,0.00,,,0.00,Wunderground v.1.13,2013-03-11 15:20:00,
2013-03-11 11:30:00,64.4,46.4,29.79,SE,144,0.0,1.0,52,0.00,,,0.00,Wunderground v.1.13,2013-03-11 15:30:00,
2013-03-11 11:40:00,64.4,46.4,29.78,SE,144,0.0,1.0,52,0.00,,,0.00,Wunderground v.1.13,2013-03-11 15:40:00,
2013-03-11 11:50:00,64.4,46.9,29.78,SE,144,0.0,1.0,53,0.00,,,0.00,Wunderground v.1.13,2013-03-11 15:50:00,
2013-03-11 12:00:00,64.2,46.2,29.80,SE,144,0.0,1.0,52,0.00,,,0.00,Wunderground v.1.13,2013-03-11 16:00:00,
2013-03-11 12:10:00,63.9,47.4,29.80,SE,144,0.0,1.0,55,0.00,,,0.00,Wunderground v.1.13,2013-03-11 16:10:00,
2013-03-11 12:20:00,63.9,44.9,29.80,NE,41,0.0,1.0,50,0.00,,,0.00,Wunderground v.1.13,2013-03-11 16:20:00,
2013-03-11 12:30:00,64.1,46.6,29.80,SE,130,0.0,1.0,53,0.00,,,0.00,Wunderground v.1.13,2013-03-11 16:30:00,
2013-03-11 12:40:00,64.1,45.6,29.80,South,172,0.0,1.0,51,0.00,,,0.00,Wunderground v.1.13,2013-03-11 16:40:00,
2013-03-11 12:50:00,63.9,45.9,29.80,South,172,0.0,1.0,52,0.00,,,0.00,Wunderground v.1.13,2013-03-11 16:50:00,
2013-03-11 13:00:00,63.8,44.8,29.80,SE,143,2.0,3.0,50,0.00,,,0.00,Wunderground v.1.13,2013-03-11 17:00:00,
2013-03-11 13:10:00,63.8,45.3,29.79,NE,53,1.0,2.0,51,0.00,,,0.00,Wunderground v.1.13,2013-03-11 17:10:00,
2013-03-11 13:20:00,63.9,44.9,29.79,SSE,165,1.0,1.0,50,0.00,,,0.00,Wunderground v.1.13,2013-03-11 17:20:00,
2013-03-11 13:30:00,64.2,44.6,29.77,SSE,167,2.0,2.0,49,0.00,,,0.00,Wunderground v.1.13,2013-03-11 17:30:00,
2013-03-11 13:40:00,64.2,46.2,29.76,SE,131,1.0,1.0,52,0.00,,,0.00,Wunderground v.1.13,2013-03-11 17:40:00,
2013-03-11 13:50:00,64.1,45.1,29.76,SE,134,0.0,1.0,50,0.00,,,0.00,Wunderground v.1.13,2013-03-11 17:50:00,
2013-03-11 14:00:00,64.1,45.1,29.74,SSE,148,0.0,1.0,50,0.00,,,0.00,Wunderground v.1.13,2013-03-11 18:00:00,
2013-03-11 14:10:00,64.2,45.2,29.74,SSE,148,0.0,1.0,50,0.00,,,0.00,Wunderground v.1.13,2013-03-11 18:10:00,
2013-03-11 14:20:00,64.4,44.8,29.74,SSW,194,0.0,3.0,49,0.00,,,0.00,Wunderground v.1.13,2013-03-11 18:20:00,
2013-03-11 14:30:00,64.9,43.6,29.73,SE,140,1.0,1.0,46,0.00,,,0.00,Wunderground v.1.13,2013-03-11 18:30:00,
2013-03-11 14:40:00,65.2,45.0,29.73,SE,140,1.0,2.0,48,0.00,,,0.00,Wunderground v.1.13,2013-03-11 18:40:00,
2013-03-11 14:50:00,65.1,44.4,29.73,SE,140,1.0,1.0,47,0.00,,,0.00,Wunderground v.1.13,2013-03-11 18:50:00,
2013-03-11 15:00:00,64.9,44.2,29.71,SE,140,0.0,1.0,47,0.00,,,0.00,Wunderground v.1.13,2013-03-11 19:00:00,
2013-03-11 15:10:00,65.1,42.6,29.70,ESE,115,1.0,2.0,44,0.00,,,0.00,Wunderground v.1.13,2013-03-11 19:10:00,
2013-03-11 15:20:00,65.4,44.1,29.70,South,175,1.0,1.0,46,0.00,,,0.00,Wunderground v.1.13,2013-03-11 19:20:00,
2013-03-11 15:30:00,64.6,48.1,29.71,West,277,0.0,1.0,55,0.00,,,0.00,Wunderground v.1.13,2013-03-11 19:30:00,
2013-03-11 15:40:00,61.5,51.6,29.74,WNW,300,1.0,1.0,70,0.00,,,0.01,Wunderground v.1.13,2013-03-11 19:40:00,
2013-03-11 15:50:00,58.6,50.3,29.74,West,260,1.0,1.0,74,0.08,,,0.02,Wunderground v.1.13,2013-03-11 19:50:00,
2013-03-11 16:00:00,56.9,52.1,29.77,SW,233,1.0,10.0,84,0.10,,,0.05,Wunderground v.1.13,2013-03-11 20:00:00,
2013-03-11 16:10:00,55.6,53.0,29.78,NNW,347,2.0,4.0,91,0.28,,,0.08,Wunderground v.1.13,2013-03-11 20:10:00,
2013-03-11 16:20:00,55.0,53.3,29.78,WNW,288,2.0,2.0,94,0.12,,,0.10,Wunderground v.1.13,2013-03-11 20:20:00,
2013-03-11 16:30:00,54.3,52.3,29.79,WNW,301,3.0,3.0,93,0.14,,,0.13,Wunderground v.1.13,2013-03-11 20:30:00,
2013-03-11 16:40:00,53.5,51.5,29.80,WSW,258,2.0,2.0,93,0.18,,,0.16,Wunderground v.1.13,2013-03-11 20:40:00,
2013-03-11 16:50:00,53.2,51.5,29.80,WSW,242,2.0,2.0,94,0.27,,,0.20,Wunderground v.1.13,2013-03-11 20:50:00,
2013-03-11 17:00:00,53.0,51.6,29.81,South,176,1.0,1.0,95,0.28,,,0.24,Wunderground v.1.13,2013-03-11 21:00:00,
2013-03-11 17:10:00,52.8,51.7,29.80,West,280,1.0,1.0,96,0.30,,,0.28,Wunderground v.1.13,2013-03-11 21:10:00,
2013-03-11 17:20:00,52.8,51.7,29.80,NW,323,0.0,1.0,96,0.18,,,0.31,Wunderground v.1.13,2013-03-11 21:20:00,
2013-03-11 17:30:00,52.8,52.0,29.80,NW,323,0.0,1.0,97,0.07,,,0.33,Wunderground v.1.13,2013-03-11 21:30:00,
2013-03-11 17:40:00,52.8,52.0,29.79,NW,323,0.0,1.0,97,0.09,,,0.34,Wunderground v.1.13,2013-03-11 21:40:00,
2013-03-11 17:50:00,52.8,52.3,29.79,NW,323,0.0,1.0,98,0.06,,,0.35,Wunderground v.1.13,2013-03-11 21:50:00,
2013-03-11 18:00:00,53.0,52.5,29.79,NW,323,0.0,1.0,98,0.06,,,0.36,Wunderground v.1.13,2013-03-11 22:00:00,
2013-03-11 18:10:00,53.0,52.5,29.80,NW,323,0.0,1.0,98,0.06,,,0.37,Wunderground v.1.13,2013-03-11 22:10:00,
2013-03-11 18:20:00,53.0,52.2,29.80,SW,229,0.0,1.0,97,0.08,,,0.38,Wunderground v.1.13,2013-03-11 22:20:00,
2013-03-11 18:30:00,53.0,52.5,29.80,SW,229,0.0,1.0,98,0.13,,,0.40,Wunderground v.1.13,2013-03-11 22:30:00,
2013-03-11 18:40:00,53.0,52.5,29.80,SW,229,0.0,1.0,98,0.13,,,0.43,Wunderground v.1.13,2013-03-11 22:40:00,
2013-03-11 18:50:00,53.0,52.5,29.80,SW,229,0.0,1.0,98,0.13,,,0.45,Wunderground v.1.13,2013-03-11 22:50:00,
2013-03-11 19:00:00,53.2,52.1,29.80,SE,135,1.0,1.0,96,0.09,,,0.47,Wunderground v.1.13,2013-03-11 23:00:00,
2013-03-11 19:10:00,53.1,52.0,29.76,ESE,121,1.0,2.0,96,0.19,,,0.50,Wunderground v.1.13,2013-03-11 23:10:00,
2013-03-11 19:20:00,53.0,51.9,29.76,SE,124,1.0,3.0,96,0.05,,,0.50,Wunderground v.1.13,2013-03-11 23:20:00,
2013-03-11 19:30:00,53.0,51.9,29.73,ESE,122,1.0,3.0,96,0.00,,,0.50,Wunderground v.1.13,2013-03-11 23:30:00,
2013-03-11 19:40:00,53.2,51.2,29.70,ESE,122,3.0,3.0,93,0.09,,,0.52,Wunderground v.1.13,2013-03-11 23:40:00,
2013-03-11 19:50:00,53.4,51.1,29.70,SSW,198,1.0,1.0,92,0.05,,,0.52,Wunderground v.1.13,2013-03-11 23:50:00,
2013-03-11 20:00:00,53.1,51.1,29.70,NW,310,1.0,9.0,93,0.00,,,0.52,Wunderground v.1.13,2013-03-12 00:00:00,
2013-03-11 20:10:00,53.2,50.6,29.74,NNW,332,1.0,1.0,91,0.00,,,0.52,Wunderground v.1.13,2013-03-12 00:10:00,
2013-03-11 20:20:00,53.1,50.5,29.74,WNW,284,0.0,9.0,91,0.00,,,0.52,Wunderground v.1.13,2013-03-12 00:20:00,
2013-03-11 20:30:00,53.1,50.8,29.75,NW,315,1.0,9.0,92,0.00,,,0.52,Wunderground v.1.13,2013-03-12 00:30:00,
2013-03-11 20:40:00,53.0,51.0,29.75,NNW,343,0.0,9.0,93,0.00,,,0.52,Wunderground v.1.13,2013-03-12 00:40:00,
2013-03-11 20:50:00,52.7,51.0,29.75,NNW,343,0.0,9.0,94,0.00,,,0.52,Wunderground v.1.13,2013-03-12 00:50:00,
2013-03-11 21:00:00,52.5,51.1,29.75,NNW,343,0.0,9.0,95,0.00,,,0.52,Wunderground v.1.13,2013-03-12 01:00:00,
2013-03-11 21:10:00,52.4,51.0,29.76,NNW,343,0.0,9.0,95,0.00,,,0.52,Wunderground v.1.13,2013-03-12 01:10:00,
2013-03-11 21:20:00,52.2,51.1,29.76,NNW,343,0.0,9.0,96,0.00,,,0.52,Wunderground v.1.13,2013-03-12 01:20:00,
2013-03-11 21:30:00,52.4,51.3,29.77,NNW,343,0.0,9.0,96,0.00,,,0.52,Wunderground v.1.13,2013-03-12 01:30:00,
2013-03-11 21:40:00,52.4,51.3,29.77,NNW,343,0.0,9.0,96,0.00,,,0.52,Wunderground v.1.13,2013-03-12 01:40:00,
2013-03-11 21:50:00,52.2,51.1,29.77,NNW,343,0.0,9.0,96,0.00,,,0.52,Wunderground v.1.13,2013-03-12 01:50:00,
2013-03-11 22:00:00,52.1,51.3,29.77,NNW,343,0.0,9.0,97,0.00,,,0.52,Wunderground v.1.13,2013-03-12 02:00:00,
2013-03-11 22:10:00,52.2,51.7,29.77,NNW,343,0.0,9.0,98,0.00,,,0.52,Wunderground v.1.13,2013-03-12 02:10:00,
2013-03-11 22:20:00,52.4,51.9,29.77,NW,306,0.0,9.0,98,0.00,,,0.53,Wunderground v.1.13,2013-03-12 02:20:00,
2013-03-11 22:30:00,52.4,51.9,29.78,NW,311,0.0,9.0,98,0.00,,,0.53,Wunderground v.1.13,2013-03-12 02:30:00,
2013-03-11 22:40:00,51.3,49.6,29.79,WNW,298,1.0,1.0,94,0.00,,,0.53,Wunderground v.1.13,2013-03-12 02:40:00,
2013-03-11 22:50:00,50.4,48.7,29.79,WNW,296,1.0,1.0,94,0.00,,,0.53,Wunderground v.1.13,2013-03-12 02:50:00,
2013-03-11 23:00:00,49.8,48.1,29.79,West,267,1.0,9.0,94,0.00,,,0.54,Wunderground v.1.13,2013-03-12 03:00:00,
2013-03-11 23:10:00,49.4,48.0,29.80,WSW,250,1.0,9.0,95,0.04,,,0.55,Wunderground v.1.13,2013-03-12 03:10:00,
2013-03-11 23:20:00,49.0,47.9,29.80,West,281,1.0,9.0,96,0.04,,,0.55,Wunderground v.1.13,2013-03-12 03:20:00,
2013-03-11 23:30:00,48.4,47.0,29.81,WNW,285,1.0,1.0,95,0.00,,,0.56,Wunderground v.1.13,2013-03-12 03:30:00,
2013-03-11 23:40:00,47.6,46.0,29.81,WNW,296,1.0,9.0,94,0.00,,,0.56,Wunderground v.1.13,2013-03-12 03:40:00,
2013-03-11 23:50:00,47.0,45.4,29.81,WSW,243,1.0,1.0,94,0.13,,,0.57,Wunderground v.1.13,2013-03-12 03:50:00,